Time;durP1;ratioP1;P1;durP2;ratioP2;P2;SDS_P1;SDS_P2;PMS_P1;PMS_P2;Temp;Humidity;BMP_temperature;BMP_pressure;BME280_temperature;BME280_humidity;BME280_pressure;Samples;Min_cycle;Max_cycle;Signal;HPM_P1;HPM_P2
2021/07/23 00:00:33;;;;;;;7.38;6.72;;;;;;;16.21;64.68;98868.16;5030741;28;20029;-65
2021/07/23 00:02:59;;;;;;;7.70;6.90;;;;;;;16.26;63.93;98872.25;5027970;28;20114;-65
2021/07/23 00:05:24;;;;;;;8.43;7.13;;;;;;;16.32;63.25;98866.84;5030524;28;20274;-65
2021/07/23 00:07:49;;;;;;;9.35;6.47;;;;;;;16.30;64.11;98866.06;5029527;28;20029;-65
2021/07/23 00:10:15;;;;;;;7.32;6.63;;;;;;;16.27;64.74;98862.75;5034308;28;20175;-65
2021/07/23 00:12:40;;;;;;;7.03;6.32;;;;;;;16.29;63.75;98866.13;5027651;28;20319;-65
2021/07/23 00:15:07;;;;;;;8.85;7.50;;;;;;;16.37;63.69;98849.41;5031728;28;20036;-65
2021/07/23 00:17:32;;;;;;;7.50;6.80;;;;;;;16.31;63.39;98847.03;5032985;28;20037;-65
2021/07/23 00:19:57;;;;;;;8.38;7.50;;;;;;;16.23;63.61;98854.25;5028876;28;20394;-65
2021/07/23 00:22:23;;;;;;;8.55;7.63;;;;;;;16.17;64.76;98845.88;5026472;28;20057;-66
2021/07/23 00:24:48;;;;;;;10.20;7.22;;;;;;;16.12;64.75;98848.66;5029642;28;20041;-65
2021/07/23 00:27:15;;;;;;;9.77;7.70;;;;;;;16.10;65.11;98854.78;5032006;28;20112;-65
2021/07/23 00:29:41;;;;;;;7.63;6.85;;;;;;;16.03;64.82;98850.75;5027441;28;20056;-66
2021/07/23 00:32:07;;;;;;;10.90;7.90;;;;;;;16.10;64.01;98850.44;5032732;28;20445;-65
2021/07/23 00:34:32;;;;;;;8.43;7.20;;;;;;;16.22;63.63;98849.97;5028122;28;20348;-65
2021/07/23 00:36:58;;;;;;;8.70;7.85;;;;;;;16.13;63.33;98847.72;5033358;28;20316;-65
2021/07/23 00:39:23;;;;;;;8.10;7.20;;;;;;;16.06;63.73;98842.88;5030667;28;20035;-64
2021/07/23 00:41:49;;;;;;;7.70;6.97;;;;;;;16.06;63.97;98837.69;5031173;28;20029;-64
2021/07/23 00:44:14;;;;;;;8.60;7.68;;;;;;;15.97;64.54;98841.47;5028964;28;20033;-65
2021/07/23 00:46:40;;;;;;;8.73;7.93;;;;;;;15.91;65.37;98841.72;5033330;28;20099;-64
2021/07/23 00:49:06;;;;;;;8.88;7.80;;;;;;;15.91;66.22;98839.94;5031968;28;20064;-65
2021/07/23 00:51:32;;;;;;;7.82;7.13;;;;;;;15.87;66.62;98837.56;5035490;28;20362;-65
2021/07/23 00:53:57;;;;;;;9.02;7.72;;;;;;;15.77;66.39;98833.59;5028386;28;20026;-64
2021/07/23 00:56:23;;;;;;;10.20;8.18;;;;;;;15.72;66.84;98831.19;5030552;28;20377;-65
2021/07/23 00:58:49;;;;;;;10.00;8.32;;;;;;;15.69;66.78;98833.03;5032187;28;20036;-65
2021/07/23 01:01:14;;;;;;;8.18;6.88;;;;;;;15.67;66.29;98829.66;5027506;28;20094;-65
2021/07/23 01:03:42;;;;;;;7.97;6.85;;;;;;;15.71;66.17;98824.31;5030953;28;20387;-65
2021/07/23 01:06:08;;;;;;;9.13;7.00;;;;;;;15.74;65.12;98826.78;5029881;28;20043;-65
2021/07/23 01:08:34;;;;;;;9.77;7.63;;;;;;;15.74;65.54;98829.38;5028645;28;20037;-65
2021/07/23 01:10:59;;;;;;;8.25;7.15;;;;;;;15.82;65.22;98823.94;5029055;28;20271;-65
2021/07/23 01:13:25;;;;;;;9.57;6.90;;;;;;;15.83;64.86;98821.28;5030913;28;20049;-65
2021/07/23 01:15:50;;;;;;;8.85;7.78;;;;;;;15.78;65.79;98815.47;5024040;28;20104;-65
2021/07/23 01:18:15;;;;;;;9.98;7.07;;;;;;;15.74;65.68;98821.63;5027407;28;20638;-64
2021/07/23 01:20:44;;;;;;;8.27;7.13;;;;;;;15.74;66.00;98820.81;5025077;28;20135;-65
2021/07/23 01:23:10;;;;;;;10.27;7.38;;;;;;;15.72;65.85;98823.44;5030856;28;20056;-65
2021/07/23 01:25:36;;;;;;;11.50;7.85;;;;;;;15.67;65.79;98820.16;5032556;28;20026;-65
2021/07/23 01:28:03;;;;;;;9.73;8.05;;;;;;;15.67;65.76;98819.31;5028860;28;20252;-65
2021/07/23 01:30:28;;;;;;;9.98;8.90;;;;;;;15.57;66.09;98823.16;5033106;28;20033;-65
2021/07/23 01:32:54;;;;;;;8.63;7.72;;;;;;;15.53;66.44;98823.25;5030694;28;20036;-65
2021/07/23 01:35:22;;;;;;;10.02;8.02;;;;;;;15.47;66.63;98820.00;5033181;28;20300;-65
2021/07/23 01:37:48;;;;;;;9.05;7.75;;;;;;;15.44;67.93;98820.97;5023492;28;20528;-65
2021/07/23 01:40:14;;;;;;;8.25;7.15;;;;;;;15.42;66.90;98825.34;5024520;28;20026;-65
2021/07/23 01:42:41;;;;;;;9.77;7.78;;;;;;;15.41;68.65;98823.66;5030999;28;20052;-65
2021/07/23 01:45:08;;;;;;;8.48;7.63;;;;;;;15.36;68.34;98825.53;5027099;28;20041;-65
2021/07/23 01:47:33;;;;;;;10.70;8.02;;;;;;;15.30;68.33;98822.34;5027733;28;20048;-65
2021/07/23 01:49:59;;;;;;;9.00;7.88;;;;;;;15.28;68.70;98822.38;5028917;28;20590;-64
2021/07/23 01:52:24;;;;;;;9.55;7.88;;;;;;;15.26;68.80;98819.03;5029546;28;20109;-64
2021/07/23 01:54:50;;;;;;;8.13;7.30;;;;;;;15.22;68.88;98816.59;5025508;28;20034;-64
2021/07/23 01:57:16;;;;;;;9.23;7.72;;;;;;;15.24;67.70;98817.38;5027159;28;20115;-65
2021/07/23 01:59:41;;;;;;;8.57;7.70;;;;;;;15.23;68.23;98819.16;5027986;28;20036;-65
2021/07/23 02:02:07;;;;;;;9.57;8.07;;;;;;;15.18;67.57;98815.88;5027261;28;20029;-65
2021/07/23 02:04:34;;;;;;;8.13;7.30;;;;;;;15.24;67.90;98813.06;5027511;28;20164;-65
2021/07/23 02:06:59;;;;;;;12.82;7.45;;;;;;;15.19;67.14;98809.78;5026354;28;20376;-65
2021/07/23 02:09:25;;;;;;;9.55;8.63;;;;;;;15.17;67.82;98806.44;5028653;28;20034;-64
2021/07/23 02:11:50;;;;;;;8.40;7.55;;;;;;;15.19;67.08;98801.22;5027743;28;20025;-64
2021/07/23 02:14:16;;;;;;;10.60;8.07;;;;;;;15.26;66.66;98807.84;5028249;28;20087;-63
2021/07/23 02:16:42;;;;;;;8.30;7.50;;;;;;;15.24;67.09;98815.66;5031491;28;20121;-64
2021/07/23 02:19:07;;;;;;;8.77;7.60;;;;;;;15.21;67.26;98805.44;5025796;28;20342;-64
2021/07/23 02:21:36;;;;;;;8.82;7.15;;;;;;;15.27;67.88;98809.53;5029306;28;20044;-64
2021/07/23 02:24:03;;;;;;;9.50;8.60;;;;;;;15.21;68.61;98809.75;5027892;28;20118;-63
2021/07/23 02:26:29;;;;;;;8.50;7.65;;;;;;;15.11;68.44;98816.97;5029592;28;20024;-63
2021/07/23 02:28:56;;;;;;;8.43;7.45;;;;;;;15.04;68.44;98807.75;5028138;28;20615;-63
2021/07/23 02:31:22;;;;;;;12.50;8.27;;;;;;;15.01;69.13;98813.03;5026292;28;20119;-63
2021/07/23 02:33:47;;;;;;;8.98;7.32;;;;;;;14.93;69.01;98815.03;5030540;28;20341;-63
2021/07/23 02:36:13;;;;;;;8.50;7.60;;;;;;;14.93;68.79;98810.72;5027777;28;20034;-64
2021/07/23 02:38:39;;;;;;;9.45;8.23;;;;;;;14.91;68.69;98809.06;5028048;28;20076;-64
2021/07/23 02:41:05;;;;;;;9.10;8.30;;;;;;;14.94;68.70;98811.53;5029297;28;20298;-64
2021/07/23 02:43:30;;;;;;;9.48;8.00;;;;;;;14.87;68.69;98810.91;5028917;28;20143;-64
2021/07/23 02:45:56;;;;;;;9.45;7.78;;;;;;;14.83;69.85;98811.91;5026687;28;20086;-63
2021/07/23 02:48:22;;;;;;;9.85;8.23;;;;;;;14.75;69.53;98815.63;5027781;28;20040;-63
2021/07/23 02:50:47;;;;;;;10.32;8.43;;;;;;;14.68;69.92;98811.56;5029740;28;20029;-63
2021/07/23 02:53:13;;;;;;;9.65;7.57;;;;;;;14.67;69.37;98807.28;5028615;28;20075;-64
2021/07/23 02:55:38;;;;;;;8.93;8.15;;;;;;;14.71;68.75;98806.28;5028035;28;20068;-64
2021/07/23 02:58:04;;;;;;;9.07;7.93;;;;;;;14.68;69.77;98808.97;5029331;28;20040;-64
2021/07/23 03:00:29;;;;;;;8.82;7.93;;;;;;;14.60;69.83;98817.78;5027998;28;20029;-64
2021/07/23 03:02:55;;;;;;;8.75;7.35;;;;;;;14.63;69.50;98804.81;5025785;28;20021;-64
2021/07/23 03:05:20;;;;;;;8.15;7.28;;;;;;;14.79;67.84;98804.31;5028647;28;20044;-64
2021/07/23 03:07:51;;;;;;;10.15;7.25;;;;;;;14.85;67.57;98809.28;5023792;28;20056;-64
2021/07/23 03:10:16;;;;;;;8.98;7.30;;;;;;;14.76;67.92;98807.00;5025408;28;20029;-64
2021/07/23 03:12:41;;;;;;;8.27;7.47;;;;;;;14.68;69.04;98809.84;5027861;28;20044;-66
2021/07/23 03:15:07;;;;;;;8.13;7.32;;;;;;;14.59;69.49;98808.38;5026859;28;20029;-66
2021/07/23 03:17:33;;;;;;;12.85;8.60;;;;;;;14.53;70.19;98802.56;5029516;28;21197;-66
2021/07/23 03:19:58;;;;;;;9.82;7.70;;;;;;;14.49;71.18;98809.56;5027309;28;20064;-65
2021/07/23 03:22:23;;;;;;;9.88;7.45;;;;;;;14.44;71.00;98810.59;5026984;28;20035;-65
2021/07/23 03:24:49;;;;;;;10.30;7.85;;;;;;;14.43;71.76;98803.75;5029726;28;20535;-64
2021/07/23 03:27:14;;;;;;;10.00;8.38;;;;;;;14.39;71.56;98810.75;5031470;28;20024;-65
2021/07/23 03:29:40;;;;;;;9.02;8.13;;;;;;;14.44;71.27;98810.59;5030884;28;20056;-65
2021/07/23 03:32:05;;;;;;;8.93;8.07;;;;;;;14.42;71.19;98812.41;5030164;28;20034;-64
2021/07/23 03:34:31;;;;;;;10.45;7.85;;;;;;;14.44;71.42;98806.28;5029939;28;20071;-65
2021/07/23 03:36:57;;;;;;;9.88;7.95;;;;;;;14.48;71.60;98805.28;5027681;28;20672;-65
2021/07/23 03:39:23;;;;;;;9.80;8.52;;;;;;;14.49;72.14;98806.13;5029593;28;20044;-65
2021/07/23 03:41:48;;;;;;;9.15;8.18;;;;;;;14.48;72.89;98807.88;5030273;28;20025;-65
2021/07/23 03:44:14;;;;;;;10.52;8.98;;;;;;;14.49;72.38;98814.72;5033907;28;20021;-65
2021/07/23 03:46:39;;;;;;;9.93;8.88;;;;;;;14.47;71.40;98815.69;5031429;28;20040;-65
2021/07/23 03:49:04;;;;;;;11.77;8.98;;;;;;;14.51;70.96;98820.66;5032676;28;20092;-65
2021/07/23 03:51:30;;;;;;;10.65;9.55;;;;;;;14.60;70.23;98814.38;5032981;28;20033;-65
2021/07/23 03:53:55;;;;;;;12.50;9.27;;;;;;;14.61;70.10;98816.06;5031458;28;20037;-65
2021/07/23 03:56:21;;;;;;;11.43;9.00;;;;;;;14.64;69.42;98816.81;5035516;28;20039;-65
2021/07/23 03:58:46;;;;;;;10.25;8.05;;;;;;;14.58;69.94;98823.91;5026201;28;20326;-65
2021/07/23 04:01:11;;;;;;;10.10;8.60;;;;;;;14.71;69.07;98819.19;5023508;28;20033;-65
2021/07/23 04:03:37;;;;;;;11.50;8.35;;;;;;;14.74;69.33;98817.34;5031152;28;20398;-65
2021/07/23 04:06:02;;;;;;;9.23;8.25;;;;;;;14.75;69.24;98813.88;5032066;28;20025;-66
2021/07/23 04:08:28;;;;;;;9.00;7.95;;;;;;;14.88;68.43;98816.91;5028030;28;20447;-66
2021/07/23 04:10:54;;;;;;;13.73;8.32;;;;;;;14.90;68.43;98815.09;5030507;28;20034;-66
2021/07/23 04:13:19;;;;;;;10.15;8.45;;;;;;;14.95;68.51;98821.81;5031054;28;20021;-66
2021/07/23 04:15:46;;;;;;;9.48;8.18;;;;;;;15.16;67.32;98816.81;5028170;28;20061;-65
2021/07/23 04:18:12;;;;;;;12.35;7.82;;;;;;;15.19;67.38;98816.72;5034115;28;20401;-65
2021/07/23 04:20:37;;;;;;;11.48;8.82;;;;;;;15.25;67.46;98819.06;5032359;28;20026;-65
2021/07/23 04:23:03;;;;;;;10.52;8.30;;;;;;;15.36;67.25;98822.97;5034434;28;20310;-64
2021/07/23 04:25:29;;;;;;;8.07;7.28;;;;;;;15.44;67.11;98820.13;5034392;28;20033;-65
2021/07/23 04:27:54;;;;;;;9.40;6.88;;;;;;;15.52;67.64;98812.97;5028088;28;20037;-65
2021/07/23 04:30:20;;;;;;;8.52;7.63;;;;;;;15.64;67.66;98816.84;5031834;28;20104;-65
2021/07/23 04:32:46;;;;;;;8.68;7.78;;;;;;;15.66;67.17;98812.50;5027119;28;20375;-65
2021/07/23 04:35:12;;;;;;;8.23;7.43;;;;;;;15.72;66.53;98822.59;5028963;28;20044;-65
2021/07/23 04:37:38;;;;;;;8.07;7.30;;;;;;;15.73;66.38;98816.53;5030087;28;20033;-65
2021/07/23 04:40:06;;;;;;;10.23;6.95;;;;;;;15.85;65.82;98818.66;5039190;28;20438;-65
2021/07/23 04:42:33;;;;;;;9.32;7.72;;;;;;;15.94;66.14;98824.31;5030933;28;20029;-65
2021/07/23 04:44:58;;;;;;;9.10;8.23;;;;;;;16.00;65.74;98818.06;5022926;28;20021;-65
2021/07/23 04:47:24;;;;;;;8.63;7.45;;;;;;;16.05;65.30;98823.91;5028041;28;20025;-66
2021/07/23 04:49:49;;;;;;;8.82;7.97;;;;;;;16.07;66.51;98813.50;5029833;28;20125;-65
2021/07/23 04:52:15;;;;;;;11.88;8.10;;;;;;;16.05;66.79;98820.47;5028379;28;20034;-66
2021/07/23 04:54:40;;;;;;;8.40;7.60;;;;;;;16.07;66.92;98816.09;5028160;28;20039;-66
2021/07/23 04:57:06;;;;;;;13.90;8.40;;;;;;;16.02;65.63;98818.88;5026869;28;20029;-64
2021/07/23 04:59:32;;;;;;;9.85;8.30;;;;;;;16.08;65.97;98815.22;5034012;28;20326;-65
2021/07/23 05:01:57;;;;;;;10.90;8.68;;;;;;;16.21;65.76;98811.25;5032266;28;20026;-66
2021/07/23 05:04:22;;;;;;;11.27;9.25;;;;;;;16.30;65.54;98816.03;5025819;28;20048;-65
2021/07/23 05:06:48;;;;;;;15.45;9.13;;;;;;;16.30;65.24;98816.88;5028030;28;20105;-65
2021/07/23 05:09:13;;;;;;;10.40;8.55;;;;;;;16.40;65.61;98813.03;5029967;28;20033;-65
2021/07/23 05:11:39;;;;;;;9.32;7.95;;;;;;;16.42;65.42;98815.59;5028195;28;20287;-65
2021/07/23 05:14:07;;;;;;;9.27;8.38;;;;;;;16.56;65.48;98815.84;5029436;28;20037;-65
2021/07/23 05:16:34;;;;;;;9.57;7.93;;;;;;;16.64;65.15;98815.56;5027533;28;20372;-65
2021/07/23 05:19:00;;;;;;;11.05;8.25;;;;;;;16.75;63.67;98816.84;5028957;28;20034;-66
2021/07/23 05:21:26;;;;;;;12.38;8.15;;;;;;;16.87;63.17;98810.31;5028673;28;20109;-65
2021/07/23 05:23:51;;;;;;;9.27;8.27;;;;;;;16.97;62.98;98819.41;5029157;28;20045;-66
2021/07/23 05:26:17;;;;;;;10.43;7.95;;;;;;;17.03;63.38;98819.13;5024367;28;20029;-66
2021/07/23 05:28:43;;;;;;;9.93;8.07;;;;;;;17.11;64.49;98816.19;5027854;28;20048;-65
2021/07/23 05:31:08;;;;;;;10.23;8.60;;;;;;;17.15;65.72;98817.75;5027424;28;20076;-65
2021/07/23 05:33:34;;;;;;;8.80;7.80;;;;;;;17.21;64.11;98818.34;5031416;28;20239;-65
2021/07/23 05:35:59;;;;;;;10.52;8.98;;;;;;;17.25;63.56;98822.50;5025237;28;20059;-65
2021/07/23 05:38:25;;;;;;;11.73;8.60;;;;;;;17.27;63.15;98817.25;5031225;28;20040;-65
2021/07/23 05:40:50;;;;;;;8.20;7.40;;;;;;;17.38;62.78;98820.22;5025458;28;20036;-65
2021/07/23 05:43:17;;;;;;;13.50;8.57;;;;;;;17.50;62.35;98821.44;5026967;28;20018;-65
2021/07/23 05:45:42;;;;;;;11.43;7.57;;;;;;;17.60;62.02;98821.00;5025864;28;20079;-66
2021/07/23 05:48:07;;;;;;;9.38;7.45;;;;;;;17.64;61.21;98816.53;5026363;28;20382;-65
2021/07/23 05:50:34;;;;;;;9.02;7.15;;;;;;;17.84;61.29;98824.25;5028409;28;20056;-65
2021/07/23 05:52:59;;;;;;;10.98;8.23;;;;;;;18.02;60.48;98825.16;5028700;28;20291;-65
2021/07/23 05:55:25;;;;;;;11.55;7.95;;;;;;;18.17;59.87;98816.66;5030471;28;20036;-65
2021/07/23 05:57:50;;;;;;;10.13;8.98;;;;;;;18.42;58.63;98811.97;5031696;28;20498;-63
2021/07/23 06:00:16;;;;;;;9.75;8.50;;;;;;;18.71;58.89;98808.03;5026930;28;20040;-63
2021/07/23 06:02:42;;;;;;;9.48;7.20;;;;;;;19.00;58.76;98807.44;5025175;28;20045;-63
2021/07/23 06:05:08;;;;;;;8.85;7.60;;;;;;;19.29;57.69;98810.31;5028137;28;20051;-64
2021/07/23 06:07:33;;;;;;;24.15;8.43;;;;;;;19.44;56.26;98799.13;5030338;28;20303;-64
2021/07/23 06:09:59;;;;;;;10.68;9.50;;;;;;;19.56;56.11;98812.31;5030506;28;20029;-64
2021/07/23 06:12:24;;;;;;;11.35;8.25;;;;;;;19.73;54.39;98800.22;5027286;28;20037;-65
2021/07/23 06:14:50;;;;;;;8.60;7.70;;;;;;;19.92;54.48;98806.09;5030109;28;20024;-64
2021/07/23 06:17:15;;;;;;;9.10;8.07;;;;;;;20.13;53.38;98804.94;5028625;28;20035;-64
2021/07/23 06:19:41;;;;;;;10.50;7.85;;;;;;;20.31;52.18;98797.91;5028046;28;20039;-64
2021/07/23 06:22:07;;;;;;;10.05;7.75;;;;;;;20.33;52.56;98796.88;5027357;28;20508;-64
2021/07/23 06:24:35;;;;;;;8.07;7.07;;;;;;;20.62;52.05;98794.44;5031284;28;20118;-64
2021/07/23 06:27:00;;;;;;;9.48;6.93;;;;;;;20.85;49.98;98793.94;5025416;28;20057;-65
2021/07/23 06:29:26;;;;;;;7.60;6.90;;;;;;;21.09;49.08;98802.09;5028446;28;20033;-64
2021/07/23 06:31:55;;;;;;;8.15;7.03;;;;;;;20.96;47.71;98794.97;5031106;28;20078;-65
2021/07/23 06:34:21;;;;;;;8.13;7.35;;;;;;;21.20;49.16;98797.94;5030279;28;20148;-63
2021/07/23 06:36:46;;;;;;;9.35;8.25;;;;;;;21.28;47.75;98795.72;5024509;28;20025;-64
2021/07/23 06:39:11;;;;;;;7.97;6.93;;;;;;;21.52;48.01;98798.63;5025186;28;20875;-64
2021/07/23 06:41:37;;;;;;;8.85;7.35;;;;;;;21.68;46.69;98802.00;5030005;28;20064;-64
2021/07/23 06:44:03;;;;;;;7.85;7.05;;;;;;;21.88;45.93;98795.53;5028675;28;20342;-65
2021/07/23 06:46:28;;;;;;;8.57;7.47;;;;;;;22.06;46.25;98793.56;5028056;28;20059;-65
2021/07/23 06:48:54;;;;;;;7.75;7.00;;;;;;;22.19;45.91;98789.25;5028816;28;20032;-62
2021/07/23 06:51:19;;;;;;;10.52;6.70;;;;;;;22.31;45.99;98791.09;5031308;28;20107;-64
2021/07/23 06:53:45;;;;;;;7.78;6.45;;;;;;;22.31;45.39;98796.31;5027305;28;20025;-64
2021/07/23 06:56:10;;;;;;;8.73;6.95;;;;;;;22.44;45.97;98797.19;5028022;28;20414;-64
2021/07/23 06:58:35;;;;;;;9.18;6.68;;;;;;;22.64;46.18;98794.13;5027216;28;20033;-64
2021/07/23 07:01:06;;;;;;;8.93;7.13;;;;;;;22.72;45.68;98796.25;5029476;28;20037;-64
2021/07/23 07:03:31;;;;;;;8.32;7.00;;;;;;;22.79;45.26;98794.09;5025094;28;20040;-64
2021/07/23 07:05:58;;;;;;;9.50;7.43;;;;;;;22.91;44.63;98790.66;5031222;28;20333;-64
2021/07/23 07:08:24;;;;;;;12.15;7.35;;;;;;;23.03;43.71;98792.47;5028722;28;20418;-64
2021/07/23 07:10:49;;;;;;;7.95;7.05;;;;;;;23.06;43.92;98797.47;5029883;28;20025;-64
2021/07/23 07:13:14;;;;;;;7.70;6.85;;;;;;;23.25;43.74;98795.31;5027380;28;20053;-64
2021/07/23 07:15:40;;;;;;;7.50;6.72;;;;;;;23.35;43.73;98791.09;5027150;28;20041;-64
2021/07/23 07:18:05;;;;;;;8.68;7.03;;;;;;;23.57;43.21;98790.50;5027154;28;20414;-64
2021/07/23 07:20:32;;;;;;;7.10;6.50;;;;;;;23.70;41.81;98793.09;5032242;28;20063;-64
2021/07/23 07:22:57;;;;;;;7.65;6.95;;;;;;;23.79;42.75;98793.31;5022658;28;20177;-64
2021/07/23 07:25:24;;;;;;;10.63;7.30;;;;;;;23.98;40.75;98787.59;5028058;28;20033;-65
2021/07/23 07:27:49;;;;;;;8.43;7.18;;;;;;;23.82;39.96;98785.22;5022391;28;20032;-64
2021/07/23 07:30:15;;;;;;;7.60;6.80;;;;;;;24.04;39.69;98787.16;5030236;28;20033;-65
2021/07/23 07:32:41;;;;;;;9.23;6.80;;;;;;;24.06;41.00;98786.09;5025614;28;20090;-65
2021/07/23 07:35:07;;;;;;;8.93;6.80;;;;;;;24.10;41.48;98791.97;5028046;28;20087;-64
2021/07/23 07:37:33;;;;;;;7.40;6.70;;;;;;;23.60;41.82;98790.28;5026806;28;20033;-64
2021/07/23 07:39:59;;;;;;;9.05;6.38;;;;;;;23.79;42.60;98785.44;5026020;28;20461;-64
2021/07/23 07:42:25;;;;;;;9.40;7.43;;;;;;;24.14;41.47;98790.81;5030482;28;20410;-64
2021/07/23 07:44:50;;;;;;;6.32;5.68;;;;;;;24.39;38.99;98780.25;5027860;28;20083;-64
2021/07/23 07:47:16;;;;;;;7.32;6.65;;;;;;;24.60;38.62;98780.47;5025221;28;20030;-63
2021/07/23 07:49:41;;;;;;;7.55;6.60;;;;;;;24.67;38.82;98779.06;5026261;28;20346;-64
2021/07/23 07:52:07;;;;;;;9.88;6.22;;;;;;;24.73;38.79;98780.41;5023849;28;20362;-65
2021/07/23 07:54:32;;;;;;;6.82;6.22;;;;;;;24.92;39.05;98780.72;5026576;28;20063;-64
2021/07/23 07:57:05;;;;;;;7.22;6.63;;;;;;;25.04;37.27;98779.78;5022030;28;20631;-64
2021/07/23 07:59:31;;;;;;;6.95;6.28;;;;;;;25.14;36.39;98780.78;5025727;28;20352;-64
2021/07/23 08:01:56;;;;;;;10.82;7.38;;;;;;;25.05;39.05;98778.84;5024796;28;20020;-65
2021/07/23 08:04:22;;;;;;;7.55;6.75;;;;;;;25.25;37.84;98779.97;5027326;28;20052;-65
2021/07/23 08:06:48;;;;;;;9.38;6.78;;;;;;;25.39;37.79;98782.34;5027204;28;20026;-67
2021/07/23 08:09:15;;;;;;;8.52;6.88;;;;;;;25.40;38.22;98779.63;5027157;28;20029;-64
2021/07/23 08:11:41;;;;;;;9.77;7.00;;;;;;;25.33;37.96;98783.66;5031993;28;20523;-65
2021/07/23 08:14:06;;;;;;;6.97;6.25;;;;;;;25.39;38.27;98779.72;5030721;28;20060;-65
2021/07/23 08:16:34;;;;;;;7.18;6.50;;;;;;;25.55;38.20;98779.41;5031029;28;20030;-65
2021/07/23 08:19:01;;;;;;;9.57;7.07;;;;;;;25.63;38.04;98769.97;5029860;28;20539;-64
2021/07/23 08:21:26;;;;;;;8.27;6.93;;;;;;;25.84;38.08;98785.88;5030252;28;20323;-65
2021/07/23 08:23:52;;;;;;;7.25;6.35;;;;;;;25.93;37.69;98777.22;5028297;28;20045;-64
2021/07/23 08:26:17;;;;;;;6.97;6.30;;;;;;;26.16;36.71;98778.03;5032163;28;20041;-64
2021/07/23 08:28:44;;;;;;;9.32;7.00;;;;;;;26.02;36.01;98775.66;5029235;28;20030;-65
2021/07/23 08:31:10;;;;;;;8.32;7.18;;;;;;;26.07;36.41;98779.59;5030104;28;20034;-65
2021/07/23 08:33:35;;;;;;;8.43;6.63;;;;;;;26.06;36.35;98777.94;5029073;28;20026;-65
2021/07/23 08:36:01;;;;;;;9.77;7.18;;;;;;;26.18;37.11;98786.66;5027467;28;20378;-64
2021/07/23 08:38:27;;;;;;;8.68;6.47;;;;;;;26.17;35.71;98783.19;5027672;28;20257;-64
2021/07/23 08:40:52;;;;;;;8.95;8.10;;;;;;;26.29;36.56;98787.47;5031682;28;20417;-64
2021/07/23 08:43:18;;;;;;;7.63;6.60;;;;;;;26.22;36.99;98777.59;5029974;28;20021;-64
2021/07/23 08:45:43;;;;;;;8.50;7.68;;;;;;;26.10;34.83;98776.72;5032238;28;20052;-64
2021/07/23 08:48:09;;;;;;;9.48;7.00;;;;;;;26.24;36.68;98786.16;5029558;28;20065;-64
2021/07/23 08:50:34;;;;;;;11.15;7.75;;;;;;;26.25;35.78;98778.19;5030029;28;20079;-64
2021/07/23 08:53:01;;;;;;;8.10;7.28;;;;;;;26.46;36.31;98770.34;5027799;28;20018;-65
2021/07/23 08:55:32;;;;;;;7.63;6.90;;;;;;;26.39;35.32;98776.22;5030519;28;20417;-65
2021/07/23 08:57:58;;;;;;;8.20;7.28;;;;;;;26.70;36.55;98770.09;5031212;28;20029;-65
2021/07/23 09:00:25;;;;;;;7.43;6.72;;;;;;;26.87;35.30;98766.94;5027545;28;20098;-65
2021/07/23 09:02:56;;;;;;;7.57;6.18;;;;;;;27.01;35.68;98763.16;5033463;28;20025;-65
2021/07/23 09:05:26;;;;;;;8.35;7.22;;;;;;;27.11;34.12;98762.28;5026634;28;20111;-65
2021/07/23 09:07:51;;;;;;;8.23;6.90;;;;;;;26.92;34.70;98762.13;5032282;28;20170;-64
2021/07/23 09:10:35;;;;;;;8.05;7.22;;;;;;;26.88;34.23;98773.88;5031392;28;20036;-64
2021/07/23 09:13:02;;;;;;;6.95;6.35;;;;;;;27.01;33.16;98763.16;5031458;28;20127;-63
2021/07/23 09:15:41;;;;;;;7.53;6.72;;;;;;;26.98;34.90;98763.44;5030236;28;20036;-64
2021/07/23 09:18:19;;;;;;;7.97;6.97;;;;;;;27.09;34.83;98763.34;5025977;28;20025;-64
2021/07/23 09:20:54;;;;;;;7.88;7.18;;;;;;;27.17;35.78;98759.09;5026342;28;20033;-65
2021/07/23 09:23:25;;;;;;;;;;;;;;;27.28;33.86;98758.22;5027876;28;20513;-66
2021/07/23 09:25:51;;;;;;;8.70;7.45;;;;;;;27.33;34.44;98763.09;5028089;28;20286;-64
2021/07/23 09:28:24;;;;;;;8.48;7.38;;;;;;;27.35;34.81;98753.22;5029220;28;20029;-65
2021/07/23 09:30:50;;;;;;;7.72;6.85;;;;;;;27.49;35.06;98758.19;5029891;28;20406;-65
2021/07/23 09:33:23;;;;;;;10.95;7.57;;;;;;;27.68;35.57;98750.34;5029437;28;20422;-64
2021/07/23 09:35:54;;;;;;;7.78;7.07;;;;;;;27.52;35.51;98752.66;5028968;28;20060;-64
2021/07/23 09:38:21;;;;;;;7.25;6.63;;;;;;;27.65;33.89;98758.53;5026969;28;20030;-65
2021/07/23 09:40:48;;;;;;;8.27;7.47;;;;;;;27.58;34.45;98746.88;5030940;28;20392;-65
2021/07/23 09:43:31;;;;;;;8.48;7.50;;;;;;;27.64;33.04;98747.16;5030882;28;20060;-65
2021/07/23 09:46:16;;;;;;;7.22;6.53;;;;;;;27.54;32.42;98748.09;5028027;28;20025;-65
2021/07/23 09:48:42;;;;;;;7.80;7.00;;;;;;;27.27;32.81;98749.47;5032938;28;20104;-64
2021/07/23 09:51:08;;;;;;;7.05;6.28;;;;;;;27.03;32.93;98735.72;5030593;28;20136;-64
2021/07/23 09:53:35;;;;;;;8.43;7.28;;;;;;;27.32;34.02;98737.72;5027661;28;20032;-64
2021/07/23 09:56:04;;;;;;;8.88;7.97;;;;;;;27.58;33.88;98739.78;5029028;28;20333;-64
2021/07/23 09:58:31;;;;;;;8.18;7.38;;;;;;;27.67;32.73;98732.88;5029585;28;20034;-64
2021/07/23 10:00:57;;;;;;;7.93;6.90;;;;;;;27.56;32.89;98733.81;5028865;28;20029;-64
2021/07/23 10:03:27;;;;;;;10.65;8.45;;;;;;;27.85;35.09;98723.34;5029579;28;20029;-65
2021/07/23 10:06:01;;;;;;;8.80;7.88;;;;;;;27.82;32.62;98726.28;5028104;28;20037;-65
2021/07/23 10:08:31;;;;;;;9.50;7.80;;;;;;;27.65;32.86;98725.13;5030742;28;20028;-64
2021/07/23 10:11:00;;;;;;;7.97;7.28;;;;;;;27.78;32.80;98719.59;5024549;28;20381;-64
2021/07/23 10:13:29;;;;;;;8.25;7.45;;;;;;;27.68;32.81;98727.47;5028844;28;20021;-65
2021/07/23 10:15:55;;;;;;;9.45;7.55;;;;;;;27.92;32.81;98718.41;5027221;28;20025;-65
2021/07/23 10:18:22;;;;;;;14.60;7.63;;;;;;;27.86;32.06;98717.13;5028792;28;20481;-65
2021/07/23 10:20:48;;;;;;;7.63;7.03;;;;;;;27.67;32.19;98712.63;5030413;28;20037;-65
2021/07/23 10:23:22;;;;;;;8.73;7.93;;;;;;;27.95;32.31;98718.94;5028180;28;20072;-65
2021/07/23 10:25:49;;;;;;;8.13;7.32;;;;;;;28.10;33.00;98720.25;5027667;28;20050;-63
2021/07/23 10:28:40;;;;;;;11.45;8.57;;;;;;;28.39;34.10;98711.53;5027681;28;20037;-65
2021/07/23 10:31:17;;;;;;;8.45;7.65;;;;;;;28.36;32.31;98709.16;5025426;28;20029;-65
2021/07/23 10:33:56;;;;;;;7.85;7.20;;;;;;;28.48;32.02;98700.13;5026809;28;20225;-65
2021/07/23 10:36:27;;;;;;;9.77;8.43;;;;;;;28.17;33.96;98704.72;5025686;28;20030;-65
2021/07/23 10:39:08;;;;;;;10.73;7.65;;;;;;;28.42;34.94;98698.06;5030761;28;20426;-64
2021/07/23 10:41:38;;;;;;;8.45;7.65;;;;;;;28.54;33.26;98697.78;5029495;28;20057;-65
2021/07/23 10:44:05;;;;;;;9.82;6.95;;;;;;;28.30;32.06;98697.38;5027868;28;20041;-65
2021/07/23 10:46:42;;;;;;;9.85;7.82;;;;;;;28.23;32.22;98688.34;5027642;28;20053;-64
2021/07/23 10:49:08;;;;;;;8.82;7.93;;;;;;;28.25;33.08;98691.69;5026958;28;20056;-64
2021/07/23 10:52:04;;;;;;;13.70;10.95;;;;;;;28.30;33.12;98692.09;5025661;28;20129;-64
2021/07/23 10:54:34;;;;;;;10.95;8.98;;;;;;;28.39;32.35;98685.97;5025744;28;20046;-64
2021/07/23 10:57:02;;;;;;;12.32;11.13;;;;;;;28.71;32.36;98677.78;5029162;28;20033;-63
2021/07/23 10:59:40;;;;;;;11.07;9.95;;;;;;;29.04;32.92;98679.91;5028613;28;20040;-64
2021/07/23 11:02:15;;;;;;;8.32;7.68;;;;;;;29.15;31.88;98678.91;5028731;28;20030;-65
2021/07/23 11:04:42;;;;;;;9.13;8.30;;;;;;;29.32;33.55;98667.59;5029715;28;20356;-64
2021/07/23 11:07:09;;;;;;;9.52;8.63;;;;;;;29.46;31.34;98672.38;5028945;28;20021;-64
2021/07/23 11:09:36;;;;;;;11.45;8.85;;;;;;;28.39;31.28;98672.78;5026980;28;20405;-64
2021/07/23 11:12:21;;;;;;;8.65;7.75;;;;;;;28.29;31.85;98663.22;5029226;28;20306;-64
2021/07/23 11:15:03;;;;;;;10.50;8.30;;;;;;;28.15;33.04;98669.72;5027192;28;20378;-64
2021/07/23 11:17:30;;;;;;;12.07;8.30;;;;;;;27.84;32.26;98661.06;5028226;28;20291;-64
2021/07/23 11:19:59;;;;;;;9.60;8.77;;;;;;;28.26;32.29;98663.50;5028551;28;20049;-64
2021/07/23 11:22:36;;;;;;;11.93;9.93;;;;;;;28.54;32.52;98662.63;5026480;28;20396;-65
2021/07/23 11:25:07;;;;;;;8.88;8.07;;;;;;;28.88;31.18;98671.75;5026748;28;20064;-64
2021/07/23 11:27:34;;;;;;;9.63;8.63;;;;;;;28.88;30.80;98658.56;5032457;28;20037;-64
2021/07/23 11:30:11;;;;;;;12.98;11.75;;;;;;;29.33;31.44;98649.94;5028835;28;20033;-64